sensor_id;sensor_type;location;lat;lon;timestamp;P1;durP1;ratioP1;P2;durP2;ratioP2
34984;SDS011;21190;58.750;17.004;2024-02-26T00:01:10;20.88;;;10.50;;
34984;SDS011;21190;58.750;17.004;2024-02-26T00:03:37;24.38;;;10.15;;
34984;SDS011;21190;58.750;17.004;2024-02-26T00:06:08;27.48;;;9.70;;
34984;SDS011;21190;58.750;17.004;2024-02-26T00:08:35;27.38;;;11.23;;
34984;SDS011;21190;58.750;17.004;2024-02-26T00:11:03;20.70;;;10.10;;
34984;SDS011;21190;58.750;17.004;2024-02-26T00:13:30;20.42;;;10.75;;
34984;SDS011;21190;58.750;17.004;2024-02-26T00:15:57;20.90;;;10.75;;
34984;SDS011;21190;58.750;17.004;2024-02-26T00:18:24;23.65;;;10.93;;
34984;SDS011;21190;58.750;17.004;2024-02-26T00:20:51;22.40;;;9.75;;
34984;SDS011;21190;58.750;17.004;2024-02-26T00:23:18;20.77;;;10.32;;
34984;SDS011;21190;58.750;17.004;2024-02-26T00:25:46;19.98;;;10.45;;
34984;SDS011;21190;58.750;17.004;2024-02-26T00:28:13;22.85;;;10.55;;
34984;SDS011;21190;58.750;17.004;2024-02-26T00:30:40;21.08;;;9.80;;
34984;SDS011;21190;58.750;17.004;2024-02-26T00:33:07;20.30;;;9.82;;
34984;SDS011;21190;58.750;17.004;2024-02-26T00:35:35;22.17;;;9.63;;
34984;SDS011;21190;58.750;17.004;2024-02-26T00:38:02;21.55;;;10.13;;
34984;SDS011;21190;58.750;17.004;2024-02-26T00:40:30;23.95;;;9.20;;
34984;SDS011;21190;58.750;17.004;2024-02-26T00:42:57;19.67;;;9.38;;
34984;SDS011;21190;58.750;17.004;2024-02-26T00:45:24;19.70;;;9.40;;
34984;SDS011;21190;58.750;17.004;2024-02-26T00:47:52;16.25;;;9.20;;
34984;SDS011;21190;58.750;17.004;2024-02-26T00:50:19;22.02;;;10.25;;
34984;SDS011;21190;58.750;17.004;2024-02-26T00:52:46;18.95;;;9.43;;
34984;SDS011;21190;58.750;17.004;2024-02-26T00:55:13;22.67;;;10.20;;
34984;SDS011;21190;58.750;17.004;2024-02-26T00:57:41;23.13;;;10.50;;
34984;SDS011;21190;58.750;17.004;2024-02-26T01:00:08;23.83;;;9.88;;
34984;SDS011;21190;58.750;17.004;2024-02-26T01:02:36;16.58;;;9.50;;
34984;SDS011;21190;58.750;17.004;2024-02-26T01:05:05;18.65;;;9.88;;
34984;SDS011;21190;58.750;17.004;2024-02-26T01:07:33;22.55;;;11.05;;
34984;SDS011;21190;58.750;17.004;2024-02-26T01:10:03;21.23;;;9.50;;
34984;SDS011;21190;58.750;17.004;2024-02-26T01:12:32;17.90;;;9.52;;
34984;SDS011;21190;58.750;17.004;2024-02-26T01:15:03;21.50;;;10.63;;
34984;SDS011;21190;58.750;17.004;2024-02-26T01:17:31;17.67;;;9.40;;
34984;SDS011;21190;58.750;17.004;2024-02-26T01:19:59;19.70;;;10.52;;
34984;SDS011;21190;58.750;17.004;2024-02-26T01:22:26;21.73;;;9.43;;
34984;SDS011;21190;58.750;17.004;2024-02-26T01:24:53;21.60;;;10.60;;
34984;SDS011;21190;58.750;17.004;2024-02-26T01:27:21;22.17;;;10.40;;
34984;SDS011;21190;58.750;17.004;2024-02-26T01:29:53;20.60;;;9.82;;
34984;SDS011;21190;58.750;17.004;2024-02-26T01:32:20;18.83;;;9.88;;
34984;SDS011;21190;58.750;17.004;2024-02-26T01:34:47;17.75;;;9.40;;
34984;SDS011;21190;58.750;17.004;2024-02-26T01:37:14;21.92;;;10.00;;
34984;SDS011;21190;58.750;17.004;2024-02-26T01:39:42;22.90;;;10.60;;
34984;SDS011;21190;58.750;17.004;2024-02-26T01:42:09;18.80;;;9.93;;
34984;SDS011;21190;58.750;17.004;2024-02-26T01:44:36;21.00;;;10.70;;
34984;SDS011;21190;58.750;17.004;2024-02-26T01:47:05;18.58;;;9.88;;
34984;SDS011;21190;58.750;17.004;2024-02-26T01:49:35;18.13;;;9.75;;
34984;SDS011;21190;58.750;17.004;2024-02-26T01:52:03;26.08;;;10.30;;
34984;SDS011;21190;58.750;17.004;2024-02-26T01:54:34;20.98;;;10.25;;
34984;SDS011;21190;58.750;17.004;2024-02-26T01:57:03;23.40;;;11.02;;
34984;SDS011;21190;58.750;17.004;2024-02-26T01:59:32;21.73;;;11.30;;
34984;SDS011;21190;58.750;17.004;2024-02-26T02:02:03;24.73;;;11.95;;
34984;SDS011;21190;58.750;17.004;2024-02-26T02:04:32;23.77;;;12.23;;
34984;SDS011;21190;58.750;17.004;2024-02-26T02:07:00;25.25;;;12.48;;
34984;SDS011;21190;58.750;17.004;2024-02-26T02:09:28;27.30;;;13.60;;
34984;SDS011;21190;58.750;17.004;2024-02-26T02:11:55;27.48;;;12.73;;
34984;SDS011;21190;58.750;17.004;2024-02-26T02:14:22;24.48;;;11.82;;
34984;SDS011;21190;58.750;17.004;2024-02-26T02:16:50;23.90;;;12.63;;
34984;SDS011;21190;58.750;17.004;2024-02-26T02:19:17;23.80;;;12.60;;
34984;SDS011;21190;58.750;17.004;2024-02-26T02:21:45;21.33;;;11.90;;
34984;SDS011;21190;58.750;17.004;2024-02-26T02:24:12;26.50;;;12.52;;
34984;SDS011;21190;58.750;17.004;2024-02-26T02:26:39;23.52;;;12.13;;
34984;SDS011;21190;58.750;17.004;2024-02-26T02:29:06;25.38;;;12.20;;
34984;SDS011;21190;58.750;17.004;2024-02-26T02:31:36;27.30;;;12.65;;
34984;SDS011;21190;58.750;17.004;2024-02-26T02:34:03;24.10;;;12.00;;
34984;SDS011;21190;58.750;17.004;2024-02-26T02:36:30;27.83;;;12.30;;
34984;SDS011;21190;58.750;17.004;2024-02-26T02:38:58;26.92;;;13.35;;
34984;SDS011;21190;58.750;17.004;2024-02-26T02:41:25;26.70;;;12.32;;
34984;SDS011;21190;58.750;17.004;2024-02-26T02:43:53;27.90;;;13.38;;
34984;SDS011;21190;58.750;17.004;2024-02-26T02:46:20;23.05;;;12.75;;
34984;SDS011;21190;58.750;17.004;2024-02-26T02:48:48;26.20;;;12.70;;
34984;SDS011;21190;58.750;17.004;2024-02-26T02:51:15;27.92;;;12.80;;
34984;SDS011;21190;58.750;17.004;2024-02-26T02:53:42;28.08;;;12.95;;
34984;SDS011;21190;58.750;17.004;2024-02-26T02:56:09;23.77;;;12.07;;
34984;SDS011;21190;58.750;17.004;2024-02-26T02:58:37;27.33;;;13.93;;
34984;SDS011;21190;58.750;17.004;2024-02-26T03:01:04;24.60;;;12.80;;
34984;SDS011;21190;58.750;17.004;2024-02-26T03:03:31;25.80;;;13.30;;
34984;SDS011;21190;58.750;17.004;2024-02-26T03:05:58;25.23;;;13.52;;
34984;SDS011;21190;58.750;17.004;2024-02-26T03:08:25;24.83;;;12.98;;
34984;SDS011;21190;58.750;17.004;2024-02-26T03:10:53;25.48;;;12.98;;
34984;SDS011;21190;58.750;17.004;2024-02-26T03:13:20;25.67;;;13.07;;
34984;SDS011;21190;58.750;17.004;2024-02-26T03:15:47;26.35;;;13.57;;
34984;SDS011;21190;58.750;17.004;2024-02-26T03:18:14;25.98;;;13.55;;
34984;SDS011;21190;58.750;17.004;2024-02-26T03:20:42;27.63;;;13.23;;
34984;SDS011;21190;58.750;17.004;2024-02-26T03:23:10;23.80;;;12.95;;
34984;SDS011;21190;58.750;17.004;2024-02-26T03:25:39;26.00;;;13.05;;
34984;SDS011;21190;58.750;17.004;2024-02-26T03:28:07;26.08;;;12.27;;
34984;SDS011;21190;58.750;17.004;2024-02-26T03:30:34;22.17;;;12.00;;
34984;SDS011;21190;58.750;17.004;2024-02-26T03:33:02;24.73;;;12.88;;
34984;SDS011;21190;58.750;17.004;2024-02-26T03:35:29;22.67;;;12.57;;
34984;SDS011;21190;58.750;17.004;2024-02-26T03:37:56;21.88;;;12.63;;
34984;SDS011;21190;58.750;17.004;2024-02-26T03:40:23;23.88;;;13.18;;
34984;SDS011;21190;58.750;17.004;2024-02-26T03:42:51;24.08;;;13.35;;
34984;SDS011;21190;58.750;17.004;2024-02-26T03:45:20;25.35;;;12.63;;
34984;SDS011;21190;58.750;17.004;2024-02-26T03:47:47;24.45;;;12.35;;
34984;SDS011;21190;58.750;17.004;2024-02-26T03:50:15;25.33;;;13.13;;
34984;SDS011;21190;58.750;17.004;2024-02-26T03:52:42;24.38;;;12.30;;
34984;SDS011;21190;58.750;17.004;2024-02-26T03:55:10;24.30;;;13.02;;
34984;SDS011;21190;58.750;17.004;2024-02-26T03:57:37;22.73;;;12.68;;
34984;SDS011;21190;58.750;17.004;2024-02-26T04:00:04;24.77;;;12.77;;
34984;SDS011;21190;58.750;17.004;2024-02-26T04:02:32;25.73;;;12.85;;
34984;SDS011;21190;58.750;17.004;2024-02-26T04:05:00;20.23;;;11.50;;
34984;SDS011;21190;58.750;17.004;2024-02-26T04:07:27;19.50;;;11.43;;
34984;SDS011;21190;58.750;17.004;2024-02-26T04:09:54;21.90;;;12.18;;
34984;SDS011;21190;58.750;17.004;2024-02-26T04:12:21;24.30;;;12.18;;
34984;SDS011;21190;58.750;17.004;2024-02-26T04:14:49;23.27;;;11.90;;
34984;SDS011;21190;58.750;17.004;2024-02-26T04:17:16;20.23;;;11.40;;
34984;SDS011;21190;58.750;17.004;2024-02-26T04:19:43;21.45;;;11.82;;
34984;SDS011;21190;58.750;17.004;2024-02-26T04:22:13;24.90;;;12.05;;
34984;SDS011;21190;58.750;17.004;2024-02-26T04:24:41;21.52;;;11.63;;
34984;SDS011;21190;58.750;17.004;2024-02-26T04:27:08;23.02;;;12.68;;
34984;SDS011;21190;58.750;17.004;2024-02-26T04:29:35;24.17;;;13.07;;
34984;SDS011;21190;58.750;17.004;2024-02-26T04:32:02;25.98;;;12.60;;
34984;SDS011;21190;58.750;17.004;2024-02-26T04:34:30;23.52;;;12.65;;
34984;SDS011;21190;58.750;17.004;2024-02-26T04:36:57;25.35;;;11.90;;
34984;SDS011;21190;58.750;17.004;2024-02-26T04:39:24;22.00;;;11.85;;
34984;SDS011;21190;58.750;17.004;2024-02-26T04:41:52;21.42;;;12.05;;
34984;SDS011;21190;58.750;17.004;2024-02-26T04:44:19;21.23;;;12.55;;
34984;SDS011;21190;58.750;17.004;2024-02-26T04:46:47;22.83;;;11.93;;
34984;SDS011;21190;58.750;17.004;2024-02-26T04:49:14;24.90;;;13.25;;
34984;SDS011;21190;58.750;17.004;2024-02-26T04:51:41;23.48;;;13.05;;
34984;SDS011;21190;58.750;17.004;2024-02-26T04:54:08;23.42;;;12.65;;
34984;SDS011;21190;58.750;17.004;2024-02-26T04:56:35;22.75;;;13.52;;
34984;SDS011;21190;58.750;17.004;2024-02-26T04:59:02;23.63;;;12.68;;
34984;SDS011;21190;58.750;17.004;2024-02-26T05:01:30;23.92;;;12.82;;
34984;SDS011;21190;58.750;17.004;2024-02-26T05:03:57;25.70;;;12.25;;
34984;SDS011;21190;58.750;17.004;2024-02-26T05:06:25;22.65;;;11.93;;
34984;SDS011;21190;58.750;17.004;2024-02-26T05:08:52;25.75;;;12.30;;
34984;SDS011;21190;58.750;17.004;2024-02-26T05:11:19;21.08;;;11.75;;
34984;SDS011;21190;58.750;17.004;2024-02-26T05:13:47;20.67;;;11.63;;
34984;SDS011;21190;58.750;17.004;2024-02-26T05:16:15;21.08;;;11.82;;
34984;SDS011;21190;58.750;17.004;2024-02-26T05:18:42;25.25;;;12.57;;
34984;SDS011;21190;58.750;17.004;2024-02-26T05:21:09;20.60;;;11.95;;
34984;SDS011;21190;58.750;17.004;2024-02-26T05:23:36;25.40;;;12.20;;
34984;SDS011;21190;58.750;17.004;2024-02-26T05:26:03;22.52;;;13.05;;
34984;SDS011;21190;58.750;17.004;2024-02-26T05:28:31;22.95;;;11.60;;
34984;SDS011;21190;58.750;17.004;2024-02-26T05:30:58;21.98;;;11.65;;
34984;SDS011;21190;58.750;17.004;2024-02-26T05:33:25;20.55;;;11.90;;
34984;SDS011;21190;58.750;17.004;2024-02-26T05:35:52;20.70;;;12.10;;
34984;SDS011;21190;58.750;17.004;2024-02-26T05:38:20;20.88;;;11.95;;
34984;SDS011;21190;58.750;17.004;2024-02-26T05:40:47;21.77;;;11.93;;
34984;SDS011;21190;58.750;17.004;2024-02-26T05:43:14;23.08;;;11.73;;
34984;SDS011;21190;58.750;17.004;2024-02-26T05:45:44;23.95;;;12.75;;
34984;SDS011;21190;58.750;17.004;2024-02-26T05:48:11;22.23;;;11.40;;
34984;SDS011;21190;58.750;17.004;2024-02-26T05:50:42;20.25;;;12.15;;
34984;SDS011;21190;58.750;17.004;2024-02-26T05:53:09;25.15;;;12.63;;
34984;SDS011;21190;58.750;17.004;2024-02-26T05:55:37;22.50;;;12.45;;
34984;SDS011;21190;58.750;17.004;2024-02-26T05:58:04;20.70;;;12.05;;
34984;SDS011;21190;58.750;17.004;2024-02-26T06:00:31;23.38;;;12.80;;
34984;SDS011;21190;58.750;17.004;2024-02-26T06:02:58;20.15;;;11.90;;
34984;SDS011;21190;58.750;17.004;2024-02-26T06:05:25;22.77;;;12.23;;
34984;SDS011;21190;58.750;17.004;2024-02-26T06:07:53;26.33;;;12.35;;
34984;SDS011;21190;58.750;17.004;2024-02-26T06:10:20;19.77;;;11.70;;
34984;SDS011;21190;58.750;17.004;2024-02-26T06:12:47;23.20;;;12.15;;
34984;SDS011;21190;58.750;17.004;2024-02-26T06:15:14;24.10;;;12.13;;
34984;SDS011;21190;58.750;17.004;2024-02-26T06:17:42;21.67;;;12.10;;
34984;SDS011;21190;58.750;17.004;2024-02-26T06:20:09;23.42;;;11.73;;
34984;SDS011;21190;58.750;17.004;2024-02-26T06:22:40;24.20;;;11.80;;
34984;SDS011;21190;58.750;17.004;2024-02-26T06:25:07;22.02;;;12.18;;
34984;SDS011;21190;58.750;17.004;2024-02-26T06:27:35;20.90;;;11.52;;
34984;SDS011;21190;58.750;17.004;2024-02-26T06:30:02;25.05;;;12.57;;
34984;SDS011;21190;58.750;17.004;2024-02-26T06:32:29;25.23;;;12.23;;
34984;SDS011;21190;58.750;17.004;2024-02-26T06:34:56;22.45;;;11.88;;
34984;SDS011;21190;58.750;17.004;2024-02-26T06:37:24;21.65;;;11.52;;
34984;SDS011;21190;58.750;17.004;2024-02-26T06:39:52;23.08;;;12.48;;
34984;SDS011;21190;58.750;17.004;2024-02-26T06:42:19;18.05;;;10.63;;
34984;SDS011;21190;58.750;17.004;2024-02-26T06:44:46;22.42;;;11.82;;
34984;SDS011;21190;58.750;17.004;2024-02-26T06:47:13;20.58;;;12.27;;
34984;SDS011;21190;58.750;17.004;2024-02-26T06:49:40;21.23;;;11.80;;
34984;SDS011;21190;58.750;17.004;2024-02-26T06:52:08;23.20;;;11.48;;
34984;SDS011;21190;58.750;17.004;2024-02-26T06:54:35;18.05;;;10.95;;
34984;SDS011;21190;58.750;17.004;2024-02-26T06:57:02;19.05;;;9.85;;
34984;SDS011;21190;58.750;17.004;2024-02-26T06:59:29;22.67;;;10.77;;
34984;SDS011;21190;58.750;17.004;2024-02-26T07:01:57;19.00;;;10.23;;
34984;SDS011;21190;58.750;17.004;2024-02-26T07:04:24;18.02;;;10.75;;
34984;SDS011;21190;58.750;17.004;2024-02-26T07:06:51;19.50;;;10.60;;
34984;SDS011;21190;58.750;17.004;2024-02-26T07:09:18;19.67;;;11.05;;
34984;SDS011;21190;58.750;17.004;2024-02-26T07:11:45;17.00;;;10.00;;
34984;SDS011;21190;58.750;17.004;2024-02-26T07:14:13;20.98;;;10.52;;
34984;SDS011;21190;58.750;17.004;2024-02-26T07:16:40;20.75;;;10.70;;
34984;SDS011;21190;58.750;17.004;2024-02-26T07:19:07;22.45;;;10.88;;
34984;SDS011;21190;58.750;17.004;2024-02-26T07:21:34;23.65;;;12.10;;
34984;SDS011;21190;58.750;17.004;2024-02-26T07:24:01;21.30;;;11.43;;
34984;SDS011;21190;58.750;17.004;2024-02-26T07:26:28;19.35;;;10.80;;
34984;SDS011;21190;58.750;17.004;2024-02-26T07:28:57;22.65;;;11.18;;
34984;SDS011;21190;58.750;17.004;2024-02-26T07:31:24;15.75;;;9.45;;
34984;SDS011;21190;58.750;17.004;2024-02-26T07:33:51;17.08;;;9.82;;
34984;SDS011;21190;58.750;17.004;2024-02-26T07:36:19;17.08;;;9.57;;
34984;SDS011;21190;58.750;17.004;2024-02-26T07:38:47;18.17;;;9.98;;
34984;SDS011;21190;58.750;17.004;2024-02-26T07:41:15;19.35;;;9.15;;
34984;SDS011;21190;58.750;17.004;2024-02-26T07:43:43;15.80;;;9.45;;
34984;SDS011;21190;58.750;17.004;2024-02-26T07:46:12;16.88;;;9.38;;
34984;SDS011;21190;58.750;17.004;2024-02-26T07:48:40;16.75;;;9.25;;
34984;SDS011;21190;58.750;17.004;2024-02-26T07:51:08;17.45;;;9.77;;
34984;SDS011;21190;58.750;17.004;2024-02-26T07:53:35;19.90;;;10.00;;
34984;SDS011;21190;58.750;17.004;2024-02-26T07:56:03;20.33;;;9.98;;
34984;SDS011;21190;58.750;17.004;2024-02-26T07:58:30;18.23;;;8.50;;
34984;SDS011;21190;58.750;17.004;2024-02-26T08:00:58;14.90;;;9.43;;
34984;SDS011;21190;58.750;17.004;2024-02-26T08:03:26;16.10;;;9.07;;
34984;SDS011;21190;58.750;17.004;2024-02-26T08:05:53;18.60;;;9.48;;
34984;SDS011;21190;58.750;17.004;2024-02-26T08:08:21;15.45;;;8.20;;
34984;SDS011;21190;58.750;17.004;2024-02-26T08:10:49;14.57;;;8.85;;
34984;SDS011;21190;58.750;17.004;2024-02-26T08:13:16;16.17;;;8.98;;
34984;SDS011;21190;58.750;17.004;2024-02-26T08:15:43;16.83;;;9.48;;
34984;SDS011;21190;58.750;17.004;2024-02-26T08:18:10;15.10;;;9.50;;
34984;SDS011;21190;58.750;17.004;2024-02-26T08:20:38;16.70;;;8.93;;
34984;SDS011;21190;58.750;17.004;2024-02-26T08:23:05;18.73;;;8.73;;
34984;SDS011;21190;58.750;17.004;2024-02-26T08:25:32;20.70;;;10.30;;
34984;SDS011;21190;58.750;17.004;2024-02-26T08:27:59;14.73;;;8.73;;
34984;SDS011;21190;58.750;17.004;2024-02-26T08:30:26;21.00;;;10.20;;
34984;SDS011;21190;58.750;17.004;2024-02-26T08:32:53;14.35;;;9.63;;
34984;SDS011;21190;58.750;17.004;2024-02-26T08:35:21;17.40;;;10.02;;
34984;SDS011;21190;58.750;17.004;2024-02-26T08:37:48;17.33;;;9.43;;
34984;SDS011;21190;58.750;17.004;2024-02-26T08:40:16;16.63;;;9.50;;
34984;SDS011;21190;58.750;17.004;2024-02-26T08:42:43;18.85;;;9.65;;
34984;SDS011;21190;58.750;17.004;2024-02-26T08:45:12;14.60;;;9.05;;
34984;SDS011;21190;58.750;17.004;2024-02-26T08:47:40;15.63;;;9.25;;
34984;SDS011;21190;58.750;17.004;2024-02-26T08:50:07;15.93;;;8.88;;
34984;SDS011;21190;58.750;17.004;2024-02-26T08:52:36;19.98;;;9.65;;
34984;SDS011;21190;58.750;17.004;2024-02-26T08:55:04;15.27;;;9.45;;
34984;SDS011;21190;58.750;17.004;2024-02-26T08:57:32;17.25;;;8.60;;
34984;SDS011;21190;58.750;17.004;2024-02-26T09:00:03;16.50;;;9.63;;
34984;SDS011;21190;58.750;17.004;2024-02-26T09:02:32;12.98;;;7.88;;
34984;SDS011;21190;58.750;17.004;2024-02-26T09:04:59;16.95;;;8.60;;
34984;SDS011;21190;58.750;17.004;2024-02-26T09:07:26;14.20;;;7.93;;
34984;SDS011;21190;58.750;17.004;2024-02-26T09:09:53;16.05;;;7.85;;
34984;SDS011;21190;58.750;17.004;2024-02-26T09:12:21;12.75;;;7.30;;
34984;SDS011;21190;58.750;17.004;2024-02-26T09:14:48;13.82;;;7.85;;
34984;SDS011;21190;58.750;17.004;2024-02-26T09:17:15;12.85;;;7.75;;
34984;SDS011;21190;58.750;17.004;2024-02-26T09:19:42;13.40;;;7.53;;
34984;SDS011;21190;58.750;17.004;2024-02-26T09:22:10;18.02;;;9.00;;
34984;SDS011;21190;58.750;17.004;2024-02-26T09:24:40;14.48;;;8.68;;
34984;SDS011;21190;58.750;17.004;2024-02-26T09:27:07;13.18;;;7.88;;
34984;SDS011;21190;58.750;17.004;2024-02-26T09:29:35;12.93;;;7.30;;
34984;SDS011;21190;58.750;17.004;2024-02-26T09:32:02;13.13;;;7.65;;
34984;SDS011;21190;58.750;17.004;2024-02-26T09:34:30;16.65;;;9.95;;
34984;SDS011;21190;58.750;17.004;2024-02-26T09:36:57;15.02;;;9.02;;
34984;SDS011;21190;58.750;17.004;2024-02-26T09:39:37;15.30;;;8.60;;
34984;SDS011;21190;58.750;17.004;2024-02-26T09:42:05;14.57;;;8.23;;
34984;SDS011;21190;58.750;17.004;2024-02-26T09:44:36;14.32;;;8.77;;
34984;SDS011;21190;58.750;17.004;2024-02-26T09:47:09;15.10;;;9.57;;
34984;SDS011;21190;58.750;17.004;2024-02-26T09:49:38;14.90;;;9.82;;
34984;SDS011;21190;58.750;17.004;2024-02-26T09:52:05;15.32;;;9.38;;
34984;SDS011;21190;58.750;17.004;2024-02-26T09:54:34;15.95;;;10.00;;
34984;SDS011;21190;58.750;17.004;2024-02-26T09:57:02;14.50;;;8.80;;
34984;SDS011;21190;58.750;17.004;2024-02-26T09:59:38;16.08;;;8.82;;
34984;SDS011;21190;58.750;17.004;2024-02-26T10:02:13;19.13;;;8.60;;
34984;SDS011;21190;58.750;17.004;2024-02-26T10:04:41;14.88;;;8.85;;
34984;SDS011;21190;58.750;17.004;2024-02-26T10:07:15;18.13;;;10.13;;
34984;SDS011;21190;58.750;17.004;2024-02-26T10:09:43;16.55;;;10.15;;
34984;SDS011;21190;58.750;17.004;2024-02-26T10:12:11;18.70;;;9.88;;
34984;SDS011;21190;58.750;17.004;2024-02-26T10:14:38;18.30;;;10.18;;
34984;SDS011;21190;58.750;17.004;2024-02-26T10:17:08;16.25;;;9.65;;
34984;SDS011;21190;58.750;17.004;2024-02-26T10:19:36;18.25;;;10.20;;
34984;SDS011;21190;58.750;17.004;2024-02-26T10:22:05;14.63;;;7.68;;
34984;SDS011;21190;58.750;17.004;2024-02-26T10:24:32;13.95;;;8.00;;
34984;SDS011;21190;58.750;17.004;2024-02-26T10:27:01;13.52;;;7.07;;
34984;SDS011;21190;58.750;17.004;2024-02-26T10:29:29;12.77;;;7.60;;
34984;SDS011;21190;58.750;17.004;2024-02-26T10:31:56;14.73;;;8.10;;
34984;SDS011;21190;58.750;17.004;2024-02-26T10:34:24;18.17;;;9.70;;
34984;SDS011;21190;58.750;17.004;2024-02-26T10:36:53;12.95;;;8.52;;
34984;SDS011;21190;58.750;17.004;2024-02-26T10:39:21;17.05;;;10.35;;
34984;SDS011;21190;58.750;17.004;2024-02-26T10:41:48;17.15;;;9.77;;
34984;SDS011;21190;58.750;17.004;2024-02-26T10:44:16;17.50;;;9.18;;
34984;SDS011;21190;58.750;17.004;2024-02-26T10:46:48;16.98;;;9.18;;
34984;SDS011;21190;58.750;17.004;2024-02-26T10:49:19;19.40;;;9.68;;
34984;SDS011;21190;58.750;17.004;2024-02-26T10:51:51;14.15;;;8.88;;
34984;SDS011;21190;58.750;17.004;2024-02-26T10:54:23;13.57;;;8.38;;
34984;SDS011;21190;58.750;17.004;2024-02-26T10:56:53;12.52;;;7.78;;
34984;SDS011;21190;58.750;17.004;2024-02-26T10:59:23;11.57;;;7.45;;
34984;SDS011;21190;58.750;17.004;2024-02-26T11:01:50;12.65;;;7.57;;
34984;SDS011;21190;58.750;17.004;2024-02-26T11:04:18;12.77;;;8.38;;
34984;SDS011;21190;58.750;17.004;2024-02-26T11:06:46;11.07;;;7.60;;
34984;SDS011;21190;58.750;17.004;2024-02-26T11:09:16;13.02;;;7.18;;
34984;SDS011;21190;58.750;17.004;2024-02-26T11:11:46;12.23;;;8.07;;
34984;SDS011;21190;58.750;17.004;2024-02-26T11:14:14;15.15;;;7.75;;
34984;SDS011;21190;58.750;17.004;2024-02-26T11:16:43;13.50;;;8.43;;
34984;SDS011;21190;58.750;17.004;2024-02-26T11:19:11;16.70;;;8.38;;
34984;SDS011;21190;58.750;17.004;2024-02-26T11:21:41;14.00;;;8.38;;
34984;SDS011;21190;58.750;17.004;2024-02-26T11:24:13;17.50;;;9.07;;
34984;SDS011;21190;58.750;17.004;2024-02-26T11:26:54;19.40;;;11.23;;
34984;SDS011;21190;58.750;17.004;2024-02-26T11:29:32;26.35;;;11.90;;
34984;SDS011;21190;58.750;17.004;2024-02-26T11:32:03;24.92;;;13.18;;
34984;SDS011;21190;58.750;17.004;2024-02-26T11:34:33;23.02;;;10.80;;
34984;SDS011;21190;58.750;17.004;2024-02-26T11:37:10;22.80;;;11.90;;
34984;SDS011;21190;58.750;17.004;2024-02-26T11:39:41;29.25;;;10.70;;
34984;SDS011;21190;58.750;17.004;2024-02-26T11:42:09;28.48;;;11.15;;
34984;SDS011;21190;58.750;17.004;2024-02-26T11:44:37;21.02;;;9.85;;
34984;SDS011;21190;58.750;17.004;2024-02-26T11:47:15;23.48;;;11.05;;
34984;SDS011;21190;58.750;17.004;2024-02-26T11:49:48;23.15;;;11.20;;
34984;SDS011;21190;58.750;17.004;2024-02-26T11:52:16;19.98;;;9.77;;
34984;SDS011;21190;58.750;17.004;2024-02-26T11:54:50;21.08;;;9.20;;
34984;SDS011;21190;58.750;17.004;2024-02-26T11:57:20;27.90;;;9.57;;
34984;SDS011;21190;58.750;17.004;2024-02-26T11:59:48;18.67;;;9.18;;
34984;SDS011;21190;58.750;17.004;2024-02-26T12:05:11;23.23;;;7.90;;
34984;SDS011;21190;58.750;17.004;2024-02-26T12:07:47;17.33;;;7.53;;
34984;SDS011;21190;58.750;17.004;2024-02-26T12:10:30;17.33;;;7.90;;
34984;SDS011;21190;58.750;17.004;2024-02-26T12:13:06;16.45;;;8.45;;
34984;SDS011;21190;58.750;17.004;2024-02-26T12:15:45;27.88;;;9.30;;
34984;SDS011;21190;58.750;17.004;2024-02-26T12:18:21;28.92;;;8.45;;
34984;SDS011;21190;58.750;17.004;2024-02-26T12:20:59;16.75;;;7.25;;
34984;SDS011;21190;58.750;17.004;2024-02-26T12:23:28;18.95;;;7.00;;
34984;SDS011;21190;58.750;17.004;2024-02-26T12:25:59;17.45;;;6.93;;
34984;SDS011;21190;58.750;17.004;2024-02-26T12:28:30;15.57;;;7.22;;
34984;SDS011;21190;58.750;17.004;2024-02-26T12:30:57;15.48;;;7.25;;
34984;SDS011;21190;58.750;17.004;2024-02-26T12:33:26;15.32;;;6.95;;
34984;SDS011;21190;58.750;17.004;2024-02-26T12:35:56;15.45;;;7.35;;
34984;SDS011;21190;58.750;17.004;2024-02-26T12:38:23;12.88;;;6.32;;
34984;SDS011;21190;58.750;17.004;2024-02-26T12:40:50;13.65;;;7.05;;
34984;SDS011;21190;58.750;17.004;2024-02-26T12:43:17;12.57;;;6.05;;
34984;SDS011;21190;58.750;17.004;2024-02-26T12:45:45;15.57;;;6.80;;
34984;SDS011;21190;58.750;17.004;2024-02-26T12:48:14;16.02;;;6.72;;
34984;SDS011;21190;58.750;17.004;2024-02-26T12:50:45;13.30;;;6.65;;
34984;SDS011;21190;58.750;17.004;2024-02-26T12:53:16;12.10;;;6.03;;
34984;SDS011;21190;58.750;17.004;2024-02-26T12:55:44;11.07;;;6.25;;
34984;SDS011;21190;58.750;17.004;2024-02-26T12:58:11;11.13;;;5.93;;
34984;SDS011;21190;58.750;17.004;2024-02-26T13:00:39;9.80;;;6.20;;
34984;SDS011;21190;58.750;17.004;2024-02-26T13:03:07;13.25;;;6.45;;
34984;SDS011;21190;58.750;17.004;2024-02-26T13:05:35;10.40;;;6.00;;
34984;SDS011;21190;58.750;17.004;2024-02-26T13:08:03;8.63;;;5.13;;
34984;SDS011;21190;58.750;17.004;2024-02-26T13:10:34;9.18;;;4.97;;
34984;SDS011;21190;58.750;17.004;2024-02-26T13:13:02;9.93;;;5.82;;
34984;SDS011;21190;58.750;17.004;2024-02-26T13:15:29;9.73;;;5.90;;
34984;SDS011;21190;58.750;17.004;2024-02-26T13:17:56;10.10;;;5.82;;
34984;SDS011;21190;58.750;17.004;2024-02-26T13:20:30;9.75;;;5.18;;
34984;SDS011;21190;58.750;17.004;2024-02-26T13:23:05;10.95;;;5.88;;
34984;SDS011;21190;58.750;17.004;2024-02-26T13:25:33;11.23;;;6.43;;
34984;SDS011;21190;58.750;17.004;2024-02-26T13:28:08;12.55;;;6.25;;
34984;SDS011;21190;58.750;17.004;2024-02-26T13:30:40;8.68;;;4.68;;
34984;SDS011;21190;58.750;17.004;2024-02-26T13:33:11;10.65;;;5.90;;
34984;SDS011;21190;58.750;17.004;2024-02-26T13:35:39;11.48;;;6.13;;
34984;SDS011;21190;58.750;17.004;2024-02-26T13:38:07;12.68;;;6.95;;
34984;SDS011;21190;58.750;17.004;2024-02-26T13:40:34;11.40;;;5.70;;
34984;SDS011;21190;58.750;17.004;2024-02-26T13:43:01;13.68;;;6.25;;
34984;SDS011;21190;58.750;17.004;2024-02-26T13:45:29;14.02;;;7.10;;
34984;SDS011;21190;58.750;17.004;2024-02-26T13:48:04;15.75;;;6.80;;
34984;SDS011;21190;58.750;17.004;2024-02-26T13:50:41;15.38;;;6.35;;
34984;SDS011;21190;58.750;17.004;2024-02-26T13:53:13;15.23;;;6.23;;
34984;SDS011;21190;58.750;17.004;2024-02-26T13:55:41;13.30;;;6.50;;
34984;SDS011;21190;58.750;17.004;2024-02-26T13:58:11;16.13;;;7.72;;
34984;SDS011;21190;58.750;17.004;2024-02-26T14:00:42;13.98;;;7.30;;
34984;SDS011;21190;58.750;17.004;2024-02-26T14:03:10;15.60;;;7.97;;
34984;SDS011;21190;58.750;17.004;2024-02-26T14:05:37;17.88;;;8.85;;
34984;SDS011;21190;58.750;17.004;2024-02-26T14:08:05;16.17;;;6.78;;
34984;SDS011;21190;58.750;17.004;2024-02-26T14:10:32;17.05;;;7.00;;
34984;SDS011;21190;58.750;17.004;2024-02-26T14:13:00;16.60;;;8.07;;
34984;SDS011;21190;58.750;17.004;2024-02-26T14:15:27;13.85;;;6.53;;
34984;SDS011;21190;58.750;17.004;2024-02-26T14:17:55;12.73;;;6.80;;
34984;SDS011;21190;58.750;17.004;2024-02-26T14:20:23;13.75;;;6.85;;
34984;SDS011;21190;58.750;17.004;2024-02-26T14:22:52;24.55;;;7.90;;
34984;SDS011;21190;58.750;17.004;2024-02-26T14:25:20;14.60;;;7.20;;